sensor_id;sensor_type;location;lat;lon;timestamp;P1;durP1;ratioP1;P2;durP2;ratioP2
72369;SDS011;60343;-32.030;115.880;2022-07-12T00:01:51;5.43;;;1.90;;
72369;SDS011;60343;-32.030;115.880;2022-07-12T00:04:19;5.47;;;2.38;;
72369;SDS011;60343;-32.030;115.880;2022-07-12T00:06:47;7.63;;;2.10;;
72369;SDS011;60343;-32.030;115.880;2022-07-12T00:09:14;5.38;;;2.22;;
72369;SDS011;60343;-32.030;115.880;2022-07-12T00:11:42;5.95;;;2.33;;
72369;SDS011;60343;-32.030;115.880;2022-07-12T00:14:10;7.30;;;2.55;;
72369;SDS011;60343;-32.030;115.880;2022-07-12T00:16:43;8.05;;;2.47;;
72369;SDS011;60343;-32.030;115.880;2022-07-12T00:19:11;8.95;;;2.75;;
72369;SDS011;60343;-32.030;115.880;2022-07-12T00:21:39;6.00;;;2.50;;
72369;SDS011;60343;-32.030;115.880;2022-07-12T00:24:06;9.85;;;2.28;;
72369;SDS011;60343;-32.030;115.880;2022-07-12T00:26:36;7.22;;;2.38;;
72369;SDS011;60343;-32.030;115.880;2022-07-12T00:29:04;7.35;;;2.15;;
72369;SDS011;60343;-32.030;115.880;2022-07-12T00:31:31;5.25;;;1.75;;
72369;SDS011;60343;-32.030;115.880;2022-07-12T00:34:05;6.38;;;2.25;;
72369;SDS011;60343;-32.030;115.880;2022-07-12T00:36:35;6.10;;;2.33;;
72369;SDS011;60343;-32.030;115.880;2022-07-12T00:39:03;5.68;;;1.75;;
72369;SDS011;60343;-32.030;115.880;2022-07-12T00:41:30;7.68;;;1.90;;
72369;SDS011;60343;-32.030;115.880;2022-07-12T00:43:58;4.30;;;1.30;;
72369;SDS011;60343;-32.030;115.880;2022-07-12T00:46:26;6.38;;;1.10;;
72369;SDS011;60343;-32.030;115.880;2022-07-12T00:48:54;5.53;;;1.30;;
72369;SDS011;60343;-32.030;115.880;2022-07-12T00:51:27;3.42;;;1.00;;
72369;SDS011;60343;-32.030;115.880;2022-07-12T00:53:56;4.95;;;1.00;;
72369;SDS011;60343;-32.030;115.880;2022-07-12T00:56:24;3.25;;;1.00;;
72369;SDS011;60343;-32.030;115.880;2022-07-12T00:58:52;2.22;;;0.63;;
72369;SDS011;60343;-32.030;115.880;2022-07-12T01:01:21;4.40;;;0.90;;
72369;SDS011;60343;-32.030;115.880;2022-07-12T01:03:49;2.67;;;0.77;;
72369;SDS011;60343;-32.030;115.880;2022-07-12T01:06:18;7.18;;;1.30;;
72369;SDS011;60343;-32.030;115.880;2022-07-12T01:08:53;3.65;;;1.00;;
72369;SDS011;60343;-32.030;115.880;2022-07-12T01:11:22;5.85;;;1.30;;
72369;SDS011;60343;-32.030;115.880;2022-07-12T01:13:50;4.20;;;1.02;;
72369;SDS011;60343;-32.030;115.880;2022-07-12T01:16:18;5.93;;;1.40;;
72369;SDS011;60343;-32.030;115.880;2022-07-12T01:18:46;4.25;;;1.08;;
72369;SDS011;60343;-32.030;115.880;2022-07-12T01:21:15;3.97;;;0.70;;
72369;SDS011;60343;-32.030;115.880;2022-07-12T01:23:50;2.00;;;0.65;;
72369;SDS011;60343;-32.030;115.880;2022-07-12T01:26:18;5.65;;;0.77;;
72369;SDS011;60343;-32.030;115.880;2022-07-12T01:28:46;3.13;;;0.68;;
72369;SDS011;60343;-32.030;115.880;2022-07-12T01:31:14;1.85;;;0.40;;
72369;SDS011;60343;-32.030;115.880;2022-07-12T01:33:42;4.70;;;0.60;;
72369;SDS011;60343;-32.030;115.880;2022-07-12T01:36:09;4.05;;;0.60;;
72369;SDS011;60343;-32.030;115.880;2022-07-12T01:38:37;3.03;;;0.63;;
72369;SDS011;60343;-32.030;115.880;2022-07-12T01:41:10;2.92;;;0.70;;
72369;SDS011;60343;-32.030;115.880;2022-07-12T01:43:38;3.10;;;0.57;;
72369;SDS011;60343;-32.030;115.880;2022-07-12T01:46:06;4.15;;;0.70;;
72369;SDS011;60343;-32.030;115.880;2022-07-12T01:48:33;2.95;;;0.60;;
72369;SDS011;60343;-32.030;115.880;2022-07-12T01:51:01;3.45;;;0.65;;
72369;SDS011;60343;-32.030;115.880;2022-07-12T01:53:29;2.97;;;0.50;;
72369;SDS011;60343;-32.030;115.880;2022-07-12T01:55:57;2.38;;;0.60;;
72369;SDS011;60343;-32.030;115.880;2022-07-12T01:58:30;3.70;;;0.70;;
72369;SDS011;60343;-32.030;115.880;2022-07-12T02:00:58;2.97;;;0.50;;
72369;SDS011;60343;-32.030;115.880;2022-07-12T02:03:26;3.92;;;0.63;;
72369;SDS011;60343;-32.030;115.880;2022-07-12T02:05:53;2.03;;;0.60;;
72369;SDS011;60343;-32.030;115.880;2022-07-12T02:08:21;2.80;;;0.50;;
72369;SDS011;60343;-32.030;115.880;2022-07-12T02:10:49;1.00;;;0.30;;
72369;SDS011;60343;-32.030;115.880;2022-07-12T02:13:17;4.43;;;0.73;;
72369;SDS011;60343;-32.030;115.880;2022-07-12T02:15:50;3.95;;;0.60;;
72369;SDS011;60343;-32.030;115.880;2022-07-12T02:18:18;2.22;;;0.52;;
72369;SDS011;60343;-32.030;115.880;2022-07-12T02:20:45;2.88;;;0.40;;
72369;SDS011;60343;-32.030;115.880;2022-07-12T02:23:13;3.53;;;0.50;;
72369;SDS011;60343;-32.030;115.880;2022-07-12T02:25:40;1.65;;;0.40;;
72369;SDS011;60343;-32.030;115.880;2022-07-12T02:28:08;3.55;;;0.77;;
72369;SDS011;60343;-32.030;115.880;2022-07-12T02:30:36;2.83;;;0.50;;
72369;SDS011;60343;-32.030;115.880;2022-07-12T02:33:09;3.50;;;0.50;;
72369;SDS011;60343;-32.030;115.880;2022-07-12T02:35:37;3.05;;;0.60;;
72369;SDS011;60343;-32.030;115.880;2022-07-12T02:38:04;4.35;;;0.60;;
72369;SDS011;60343;-32.030;115.880;2022-07-12T02:40:32;2.92;;;0.85;;
72369;SDS011;60343;-32.030;115.880;2022-07-12T02:43:02;1.77;;;0.43;;
72369;SDS011;60343;-32.030;115.880;2022-07-12T02:45:30;2.65;;;0.68;;
72369;SDS011;60343;-32.030;115.880;2022-07-12T02:47:58;3.58;;;0.70;;
72369;SDS011;60343;-32.030;115.880;2022-07-12T02:50:31;2.97;;;0.55;;
72369;SDS011;60343;-32.030;115.880;2022-07-12T02:52:59;4.95;;;0.75;;
72369;SDS011;60343;-32.030;115.880;2022-07-12T02:55:26;2.80;;;0.80;;
72369;SDS011;60343;-32.030;115.880;2022-07-12T02:57:54;2.90;;;0.40;;
72369;SDS011;60343;-32.030;115.880;2022-07-12T03:00:22;4.55;;;0.70;;
72369;SDS011;60343;-32.030;115.880;2022-07-12T03:02:50;3.00;;;0.60;;
72369;SDS011;60343;-32.030;115.880;2022-07-12T03:05:17;2.20;;;0.50;;
72369;SDS011;60343;-32.030;115.880;2022-07-12T03:07:50;3.63;;;0.70;;
72369;SDS011;60343;-32.030;115.880;2022-07-12T03:10:18;3.88;;;0.73;;
72369;SDS011;60343;-32.030;115.880;2022-07-12T03:12:46;4.22;;;0.60;;
72369;SDS011;60343;-32.030;115.880;2022-07-12T03:15:14;3.33;;;0.57;;
72369;SDS011;60343;-32.030;115.880;2022-07-12T03:17:41;3.28;;;0.50;;
72369;SDS011;60343;-32.030;115.880;2022-07-12T03:20:09;3.65;;;0.50;;
72369;SDS011;60343;-32.030;115.880;2022-07-12T03:22:38;1.77;;;0.32;;
72369;SDS011;60343;-32.030;115.880;2022-07-12T03:25:11;2.55;;;0.50;;
72369;SDS011;60343;-32.030;115.880;2022-07-12T03:27:39;3.78;;;0.40;;
72369;SDS011;60343;-32.030;115.880;2022-07-12T03:30:07;2.75;;;0.50;;
72369;SDS011;60343;-32.030;115.880;2022-07-12T03:32:35;2.40;;;0.40;;
72369;SDS011;60343;-32.030;115.880;2022-07-12T03:35:03;2.42;;;0.47;;
72369;SDS011;60343;-32.030;115.880;2022-07-12T03:37:39;3.75;;;0.60;;
72369;SDS011;60343;-32.030;115.880;2022-07-12T03:40:17;2.30;;;0.40;;
72369;SDS011;60343;-32.030;115.880;2022-07-12T03:42:45;1.63;;;0.40;;
72369;SDS011;60343;-32.030;115.880;2022-07-12T03:45:13;1.75;;;0.40;;
72369;SDS011;60343;-32.030;115.880;2022-07-12T03:47:41;1.67;;;0.35;;
72369;SDS011;60343;-32.030;115.880;2022-07-12T03:50:10;2.55;;;0.40;;
72369;SDS011;60343;-32.030;115.880;2022-07-12T03:52:39;1.50;;;0.35;;
72369;SDS011;60343;-32.030;115.880;2022-07-12T03:55:07;1.38;;;0.40;;
72369;SDS011;60343;-32.030;115.880;2022-07-12T03:57:42;3.20;;;0.50;;
72369;SDS011;60343;-32.030;115.880;2022-07-12T04:00:10;3.13;;;0.50;;
72369;SDS011;60343;-32.030;115.880;2022-07-12T04:02:38;2.25;;;0.43;;
72369;SDS011;60343;-32.030;115.880;2022-07-12T04:05:07;2.22;;;0.32;;
72369;SDS011;60343;-32.030;115.880;2022-07-12T04:07:36;2.55;;;0.57;;
72369;SDS011;60343;-32.030;115.880;2022-07-12T04:10:04;3.22;;;0.38;;
72369;SDS011;60343;-32.030;115.880;2022-07-12T04:12:32;2.63;;;0.60;;
72369;SDS011;60343;-32.030;115.880;2022-07-12T04:15:06;2.40;;;0.32;;
72369;SDS011;60343;-32.030;115.880;2022-07-12T04:17:34;2.25;;;0.40;;
72369;SDS011;60343;-32.030;115.880;2022-07-12T04:20:02;2.25;;;0.40;;
72369;SDS011;60343;-32.030;115.880;2022-07-12T04:22:30;1.23;;;0.30;;
72369;SDS011;60343;-32.030;115.880;2022-07-12T04:24:58;2.38;;;0.40;;
72369;SDS011;60343;-32.030;115.880;2022-07-12T04:27:25;2.85;;;0.30;;
72369;SDS011;60343;-32.030;115.880;2022-07-12T04:29:53;5.40;;;0.40;;
72369;SDS011;60343;-32.030;115.880;2022-07-12T04:32:26;1.52;;;0.30;;
72369;SDS011;60343;-32.030;115.880;2022-07-12T04:34:54;2.65;;;0.28;;
72369;SDS011;60343;-32.030;115.880;2022-07-12T04:37:22;1.20;;;0.30;;
72369;SDS011;60343;-32.030;115.880;2022-07-12T04:39:49;2.40;;;0.40;;
72369;SDS011;60343;-32.030;115.880;2022-07-12T04:42:17;1.13;;;0.30;;
72369;SDS011;60343;-32.030;115.880;2022-07-12T04:44:45;2.80;;;0.40;;
72369;SDS011;60343;-32.030;115.880;2022-07-12T04:47:12;0.75;;;0.15;;
72369;SDS011;60343;-32.030;115.880;2022-07-12T04:49:46;2.40;;;0.30;;
72369;SDS011;60343;-32.030;115.880;2022-07-12T04:52:13;2.28;;;0.30;;
72369;SDS011;60343;-32.030;115.880;2022-07-12T04:54:41;1.70;;;0.40;;
72369;SDS011;60343;-32.030;115.880;2022-07-12T04:57:09;2.72;;;0.30;;
72369;SDS011;60343;-32.030;115.880;2022-07-12T04:59:36;2.17;;;0.32;;
72369;SDS011;60343;-32.030;115.880;2022-07-12T05:02:04;1.40;;;0.10;;
72369;SDS011;60343;-32.030;115.880;2022-07-12T05:04:32;1.20;;;0.25;;
72369;SDS011;60343;-32.030;115.880;2022-07-12T05:07:05;2.55;;;0.40;;
72369;SDS011;60343;-32.030;115.880;2022-07-12T05:09:33;1.17;;;0.30;;
72369;SDS011;60343;-32.030;115.880;2022-07-12T05:12:00;1.52;;;0.25;;
72369;SDS011;60343;-32.030;115.880;2022-07-12T05:14:28;1.73;;;0.30;;
72369;SDS011;60343;-32.030;115.880;2022-07-12T05:16:56;3.75;;;0.25;;
72369;SDS011;60343;-32.030;115.880;2022-07-12T05:19:24;2.25;;;0.30;;
72369;SDS011;60343;-32.030;115.880;2022-07-12T05:21:51;2.42;;;0.17;;
72369;SDS011;60343;-32.030;115.880;2022-07-12T05:24:24;1.15;;;0.15;;
72369;SDS011;60343;-32.030;115.880;2022-07-12T05:26:52;0.77;;;0.13;;
72369;SDS011;60343;-32.030;115.880;2022-07-12T05:29:20;2.00;;;0.20;;
72369;SDS011;60343;-32.030;115.880;2022-07-12T05:31:48;0.55;;;0.10;;
72369;SDS011;60343;-32.030;115.880;2022-07-12T05:34:15;1.83;;;0.15;;
72369;SDS011;60343;-32.030;115.880;2022-07-12T05:36:43;2.92;;;0.40;;
72369;SDS011;60343;-32.030;115.880;2022-07-12T05:39:11;2.08;;;0.28;;
72369;SDS011;60343;-32.030;115.880;2022-07-12T05:41:44;0.63;;;0.10;;
72369;SDS011;60343;-32.030;115.880;2022-07-12T05:44:11;2.30;;;0.20;;
72369;SDS011;60343;-32.030;115.880;2022-07-12T05:46:39;1.50;;;0.30;;
72369;SDS011;60343;-32.030;115.880;2022-07-12T05:49:07;2.63;;;0.17;;
72369;SDS011;60343;-32.030;115.880;2022-07-12T05:51:34;1.33;;;0.20;;
72369;SDS011;60343;-32.030;115.880;2022-07-12T05:54:02;2.22;;;0.30;;
72369;SDS011;60343;-32.030;115.880;2022-07-12T05:56:30;1.83;;;0.13;;
72369;SDS011;60343;-32.030;115.880;2022-07-12T05:59:03;1.50;;;0.20;;
72369;SDS011;60343;-32.030;115.880;2022-07-12T06:01:31;2.20;;;0.30;;
72369;SDS011;60343;-32.030;115.880;2022-07-12T06:03:58;1.23;;;0.10;;
72369;SDS011;60343;-32.030;115.880;2022-07-12T06:06:26;3.33;;;0.30;;
72369;SDS011;60343;-32.030;115.880;2022-07-12T06:08:54;3.03;;;0.20;;
72369;SDS011;60343;-32.030;115.880;2022-07-12T06:11:21;1.65;;;0.28;;
72369;SDS011;60343;-32.030;115.880;2022-07-12T06:13:49;3.17;;;0.30;;
72369;SDS011;60343;-32.030;115.880;2022-07-12T06:16:22;1.45;;;0.30;;
72369;SDS011;60343;-32.030;115.880;2022-07-12T06:18:50;1.23;;;0.20;;
72369;SDS011;60343;-32.030;115.880;2022-07-12T06:21:18;1.20;;;0.10;;
72369;SDS011;60343;-32.030;115.880;2022-07-12T06:23:45;0.50;;;0.10;;
72369;SDS011;60343;-32.030;115.880;2022-07-12T06:26:13;1.95;;;0.30;;
72369;SDS011;60343;-32.030;115.880;2022-07-12T06:28:41;1.48;;;0.10;;
72369;SDS011;60343;-32.030;115.880;2022-07-12T06:31:08;1.95;;;0.10;;
72369;SDS011;60343;-32.030;115.880;2022-07-12T06:33:41;2.03;;;0.20;;
72369;SDS011;60343;-32.030;115.880;2022-07-12T06:36:09;1.38;;;0.13;;
72369;SDS011;60343;-32.030;115.880;2022-07-12T06:38:37;1.02;;;0.10;;
72369;SDS011;60343;-32.030;115.880;2022-07-12T06:41:04;1.45;;;0.10;;
72369;SDS011;60343;-32.030;115.880;2022-07-12T06:43:32;2.17;;;0.10;;
72369;SDS011;60343;-32.030;115.880;2022-07-12T06:49:00;1.13;;;0.10;;
72369;SDS011;60343;-32.030;115.880;2022-07-12T06:51:28;0.93;;;0.15;;
72369;SDS011;60343;-32.030;115.880;2022-07-12T06:53:55;1.85;;;0.32;;
72369;SDS011;60343;-32.030;115.880;2022-07-12T06:56:23;2.88;;;0.30;;
72369;SDS011;60343;-32.030;115.880;2022-07-12T06:58:51;0.93;;;0.10;;
72369;SDS011;60343;-32.030;115.880;2022-07-12T07:01:19;0.88;;;0.10;;
72369;SDS011;60343;-32.030;115.880;2022-07-12T07:03:46;1.05;;;0.10;;
72369;SDS011;60343;-32.030;115.880;2022-07-12T07:06:22;1.80;;;0.20;;
72369;SDS011;60343;-32.030;115.880;2022-07-12T07:08:49;2.28;;;0.20;;
72369;SDS011;60343;-32.030;115.880;2022-07-12T07:11:17;2.72;;;0.10;;
72369;SDS011;60343;-32.030;115.880;2022-07-12T07:13:45;2.38;;;0.20;;
72369;SDS011;60343;-32.030;115.880;2022-07-12T07:16:12;1.10;;;0.17;;
72369;SDS011;60343;-32.030;115.880;2022-07-12T07:18:40;1.95;;;0.03;;
72369;SDS011;60343;-32.030;115.880;2022-07-12T07:21:08;1.33;;;0.13;;
72369;SDS011;60343;-32.030;115.880;2022-07-12T07:23:41;2.67;;;0.20;;
72369;SDS011;60343;-32.030;115.880;2022-07-12T07:26:08;3.28;;;0.43;;
72369;SDS011;60343;-32.030;115.880;2022-07-12T07:28:36;1.13;;;0.20;;
72369;SDS011;60343;-32.030;115.880;2022-07-12T07:31:04;1.45;;;0.10;;
72369;SDS011;60343;-32.030;115.880;2022-07-12T07:33:31;1.48;;;0.10;;
72369;SDS011;60343;-32.030;115.880;2022-07-12T07:35:59;1.63;;;0.20;;
72369;SDS011;60343;-32.030;115.880;2022-07-12T07:38:27;1.52;;;0.17;;
72369;SDS011;60343;-32.030;115.880;2022-07-12T07:41:00;2.70;;;0.40;;
72369;SDS011;60343;-32.030;115.880;2022-07-12T07:43:27;2.17;;;0.30;;
72369;SDS011;60343;-32.030;115.880;2022-07-12T07:45:55;2.53;;;0.30;;
72369;SDS011;60343;-32.030;115.880;2022-07-12T07:48:23;2.80;;;0.30;;
72369;SDS011;60343;-32.030;115.880;2022-07-12T07:50:51;2.15;;;0.20;;
72369;SDS011;60343;-32.030;115.880;2022-07-12T07:53:18;2.28;;;0.20;;
72369;SDS011;60343;-32.030;115.880;2022-07-12T07:55:46;1.52;;;0.20;;
72369;SDS011;60343;-32.030;115.880;2022-07-12T07:58:20;2.33;;;0.30;;
72369;SDS011;60343;-32.030;115.880;2022-07-12T08:00:48;2.45;;;0.17;;
72369;SDS011;60343;-32.030;115.880;2022-07-12T08:03:16;2.00;;;0.20;;
72369;SDS011;60343;-32.030;115.880;2022-07-12T08:05:45;1.45;;;0.10;;
72369;SDS011;60343;-32.030;115.880;2022-07-12T08:08:15;2.55;;;0.28;;
72369;SDS011;60343;-32.030;115.880;2022-07-12T08:10:43;1.02;;;0.17;;
72369;SDS011;60343;-32.030;115.880;2022-07-12T08:13:10;2.05;;;0.20;;
72369;SDS011;60343;-32.030;115.880;2022-07-12T08:15:43;1.23;;;0.30;;
72369;SDS011;60343;-32.030;115.880;2022-07-12T08:18:11;1.98;;;0.22;;
72369;SDS011;60343;-32.030;115.880;2022-07-12T08:20:39;1.52;;;0.13;;
72369;SDS011;60343;-32.030;115.880;2022-07-12T08:23:07;2.47;;;0.38;;
72369;SDS011;60343;-32.030;115.880;2022-07-12T08:25:35;2.55;;;0.20;;
72369;SDS011;60343;-32.030;115.880;2022-07-12T08:28:02;1.15;;;0.20;;
72369;SDS011;60343;-32.030;115.880;2022-07-12T08:30:30;1.38;;;0.15;;
72369;SDS011;60343;-32.030;115.880;2022-07-12T08:33:03;2.00;;;0.40;;
72369;SDS011;60343;-32.030;115.880;2022-07-12T08:35:31;1.52;;;0.17;;
72369;SDS011;60343;-32.030;115.880;2022-07-12T08:37:59;1.65;;;0.20;;
72369;SDS011;60343;-32.030;115.880;2022-07-12T08:40:26;1.30;;;0.20;;
72369;SDS011;60343;-32.030;115.880;2022-07-12T08:42:56;0.80;;;0.10;;
72369;SDS011;60343;-32.030;115.880;2022-07-12T08:45:24;1.42;;;0.20;;
72369;SDS011;60343;-32.030;115.880;2022-07-12T08:47:52;0.88;;;0.22;;
72369;SDS011;60343;-32.030;115.880;2022-07-12T08:50:25;3.63;;;0.32;;
72369;SDS011;60343;-32.030;115.880;2022-07-12T08:52:54;1.27;;;0.10;;
72369;SDS011;60343;-32.030;115.880;2022-07-12T08:55:23;2.33;;;0.20;;
72369;SDS011;60343;-32.030;115.880;2022-07-12T08:57:52;1.80;;;0.20;;
72369;SDS011;60343;-32.030;115.880;2022-07-12T09:00:20;1.40;;;0.20;;
72369;SDS011;60343;-32.030;115.880;2022-07-12T09:02:49;2.60;;;0.20;;
72369;SDS011;60343;-32.030;115.880;2022-07-12T09:05:18;2.28;;;0.30;;
72369;SDS011;60343;-32.030;115.880;2022-07-12T09:08:00;2.05;;;0.28;;
72369;SDS011;60343;-32.030;115.880;2022-07-12T09:10:29;4.88;;;0.30;;
72369;SDS011;60343;-32.030;115.880;2022-07-12T09:12:58;2.00;;;0.22;;
72369;SDS011;60343;-32.030;115.880;2022-07-12T09:15:26;2.03;;;0.30;;
72369;SDS011;60343;-32.030;115.880;2022-07-12T09:17:57;0.82;;;0.10;;
72369;SDS011;60343;-32.030;115.880;2022-07-12T09:20:32;4.40;;;0.30;;
72369;SDS011;60343;-32.030;115.880;2022-07-12T09:23:03;0.98;;;0.13;;
72369;SDS011;60343;-32.030;115.880;2022-07-12T09:25:31;1.80;;;0.30;;
72369;SDS011;60343;-32.030;115.880;2022-07-12T09:28:00;0.55;;;0.10;;
72369;SDS011;60343;-32.030;115.880;2022-07-12T09:30:31;2.85;;;0.30;;
72369;SDS011;60343;-32.030;115.880;2022-07-12T09:33:00;1.65;;;0.20;;
72369;SDS011;60343;-32.030;115.880;2022-07-12T09:35:34;3.15;;;0.45;;
72369;SDS011;60343;-32.030;115.880;2022-07-12T09:38:08;1.23;;;0.20;;
72369;SDS011;60343;-32.030;115.880;2022-07-12T09:40:36;2.40;;;0.40;;
72369;SDS011;60343;-32.030;115.880;2022-07-12T09:43:03;2.42;;;0.40;;
72369;SDS011;60343;-32.030;115.880;2022-07-12T09:45:32;3.10;;;0.43;;
72369;SDS011;60343;-32.030;115.880;2022-07-12T09:48:00;2.47;;;0.40;;
72369;SDS011;60343;-32.030;115.880;2022-07-12T09:50:35;3.60;;;0.52;;
72369;SDS011;60343;-32.030;115.880;2022-07-12T09:53:04;1.40;;;0.40;;
72369;SDS011;60343;-32.030;115.880;2022-07-12T09:55:33;1.70;;;0.40;;
72369;SDS011;60343;-32.030;115.880;2022-07-12T09:58:03;1.65;;;0.40;;
72369;SDS011;60343;-32.030;115.880;2022-07-12T10:00:34;4.35;;;0.60;;
72369;SDS011;60343;-32.030;115.880;2022-07-12T10:03:02;4.45;;;0.65;;
72369;SDS011;60343;-32.030;115.880;2022-07-12T10:05:36;2.83;;;0.70;;
72369;SDS011;60343;-32.030;115.880;2022-07-12T10:08:07;3.63;;;0.80;;
72369;SDS011;60343;-32.030;115.880;2022-07-12T10:10:35;4.80;;;1.05;;
72369;SDS011;60343;-32.030;115.880;2022-07-12T10:13:04;6.50;;;1.58;;
72369;SDS011;60343;-32.030;115.880;2022-07-12T10:15:31;6.25;;;1.65;;
72369;SDS011;60343;-32.030;115.880;2022-07-12T10:18:00;6.60;;;1.60;;
72369;SDS011;60343;-32.030;115.880;2022-07-12T10:20:28;4.82;;;1.35;;
72369;SDS011;60343;-32.030;115.880;2022-07-12T10:25:58;7.03;;;1.90;;
72369;SDS011;60343;-32.030;115.880;2022-07-12T10:31:23;5.93;;;1.80;;
72369;SDS011;60343;-32.030;115.880;2022-07-12T10:39:40;7.60;;;2.20;;
72369;SDS011;60343;-32.030;115.880;2022-07-12T10:42:28;9.68;;;3.45;;
72369;SDS011;60343;-32.030;115.880;2022-07-12T10:44:56;11.18;;;4.35;;
72369;SDS011;60343;-32.030;115.880;2022-07-12T10:47:53;20.27;;;8.10;;
72369;SDS011;60343;-32.030;115.880;2022-07-12T10:50:33;20.02;;;8.35;;
72369;SDS011;60343;-32.030;115.880;2022-07-12T10:53:27;17.58;;;7.68;;
72369;SDS011;60343;-32.030;115.880;2022-07-12T10:58:51;14.75;;;7.20;;
72369;SDS011;60343;-32.030;115.880;2022-07-12T11:01:19;13.38;;;6.25;;
72369;SDS011;60343;-32.030;115.880;2022-07-12T11:03:49;13.93;;;6.10;;
72369;SDS011;60343;-32.030;115.880;2022-07-12T11:06:18;15.52;;;5.38;;
72369;SDS011;60343;-32.030;115.880;2022-07-12T11:08:54;13.57;;;4.97;;
72369;SDS011;60343;-32.030;115.880;2022-07-12T11:11:23;14.90;;;5.65;;
72369;SDS011;60343;-32.030;115.880;2022-07-12T11:13:55;14.55;;;5.35;;
72369;SDS011;60343;-32.030;115.880;2022-07-12T11:16:23;11.82;;;4.90;;
72369;SDS011;60343;-32.030;115.880;2022-07-12T11:18:52;11.85;;;4.97;;
72369;SDS011;60343;-32.030;115.880;2022-07-12T11:21:20;15.00;;;5.10;;
72369;SDS011;60343;-32.030;115.880;2022-07-12T11:23:48;16.40;;;6.93;;
72369;SDS011;60343;-32.030;115.880;2022-07-12T11:26:21;17.60;;;8.07;;
72369;SDS011;60343;-32.030;115.880;2022-07-12T11:28:49;18.42;;;7.68;;
72369;SDS011;60343;-32.030;115.880;2022-07-12T11:31:17;15.73;;;7.47;;
72369;SDS011;60343;-32.030;115.880;2022-07-12T11:33:45;18.08;;;6.15;;
72369;SDS011;60343;-32.030;115.880;2022-07-12T11:36:14;14.73;;;6.18;;
72369;SDS011;60343;-32.030;115.880;2022-07-12T11:38:42;15.52;;;7.80;;
72369;SDS011;60343;-32.030;115.880;2022-07-12T11:41:16;14.48;;;5.90;;
72369;SDS011;60343;-32.030;115.880;2022-07-12T11:43:44;17.25;;;7.55;;
72369;SDS011;60343;-32.030;115.880;2022-07-12T11:46:12;21.02;;;8.38;;
72369;SDS011;60343;-32.030;115.880;2022-07-12T11:48:40;19.10;;;8.50;;
72369;SDS011;60343;-32.030;115.880;2022-07-12T11:51:09;27.40;;;8.80;;
72369;SDS011;60343;-32.030;115.880;2022-07-12T11:53:38;19.95;;;9.45;;
72369;SDS011;60343;-32.030;115.880;2022-07-12T11:56:07;15.77;;;7.38;;
72369;SDS011;60343;-32.030;115.880;2022-07-12T11:58:54;18.23;;;6.88;;
72369;SDS011;60343;-32.030;115.880;2022-07-12T12:01:22;21.75;;;8.75;;
72369;SDS011;60343;-32.030;115.880;2022-07-12T12:03:50;19.73;;;8.88;;
72369;SDS011;60343;-32.030;115.880;2022-07-12T12:06:17;19.15;;;8.02;;
72369;SDS011;60343;-32.030;115.880;2022-07-12T12:08:45;15.30;;;6.78;;
72369;SDS011;60343;-32.030;115.880;2022-07-12T12:11:16;16.77;;;7.93;;
72369;SDS011;60343;-32.030;115.880;2022-07-12T12:14:01;17.63;;;7.88;;
72369;SDS011;60343;-32.030;115.880;2022-07-12T12:16:32;17.85;;;8.50;;
72369;SDS011;60343;-32.030;115.880;2022-07-12T12:19:00;16.13;;;7.78;;
72369;SDS011;60343;-32.030;115.880;2022-07-12T12:21:28;18.45;;;7.50;;
72369;SDS011;60343;-32.030;115.880;2022-07-12T12:24:08;15.60;;;6.57;;
72369;SDS011;60343;-32.030;115.880;2022-07-12T12:26:36;18.17;;;7.43;;
72369;SDS011;60343;-32.030;115.880;2022-07-12T12:29:09;18.02;;;7.40;;
72369;SDS011;60343;-32.030;115.880;2022-07-12T12:31:37;23.00;;;7.78;;
72369;SDS011;60343;-32.030;115.880;2022-07-12T12:34:09;18.88;;;8.00;;
72369;SDS011;60343;-32.030;115.880;2022-07-12T12:36:37;17.95;;;7.30;;
72369;SDS011;60343;-32.030;115.880;2022-07-12T12:39:05;21.80;;;8.60;;
72369;SDS011;60343;-32.030;115.880;2022-07-12T12:41:38;13.10;;;6.57;;
72369;SDS011;60343;-32.030;115.880;2022-07-12T12:44:12;13.40;;;6.18;;
72369;SDS011;60343;-32.030;115.880;2022-07-12T12:46:46;17.00;;;7.28;;
72369;SDS011;60343;-32.030;115.880;2022-07-12T12:49:16;17.63;;;7.38;;
72369;SDS011;60343;-32.030;115.880;2022-07-12T12:51:56;18.77;;;7.60;;
72369;SDS011;60343;-32.030;115.880;2022-07-12T12:54:31;16.65;;;6.57;;
72369;SDS011;60343;-32.030;115.880;2022-07-12T12:56:59;18.95;;;7.88;;
72369;SDS011;60343;-32.030;115.880;2022-07-12T12:59:33;15.52;;;7.43;;
72369;SDS011;60343;-32.030;115.880;2022-07-12T13:02:01;17.23;;;8.02;;
72369;SDS011;60343;-32.030;115.880;2022-07-12T13:04:30;18.48;;;8.48;;
72369;SDS011;60343;-32.030;115.880;2022-07-12T13:06:58;18.27;;;9.48;;
72369;SDS011;60343;-32.030;115.880;2022-07-12T13:09:26;18.33;;;8.27;;
72369;SDS011;60343;-32.030;115.880;2022-07-12T13:11:54;21.63;;;10.70;;
72369;SDS011;60343;-32.030;115.880;2022-07-12T13:14:22;22.17;;;10.55;;
72369;SDS011;60343;-32.030;115.880;2022-07-12T13:16:55;21.88;;;10.45;;
72369;SDS011;60343;-32.030;115.880;2022-07-12T13:19:23;21.27;;;9.02;;
72369;SDS011;60343;-32.030;115.880;2022-07-12T13:21:51;22.13;;;10.63;;
72369;SDS011;60343;-32.030;115.880;2022-07-12T13:24:18;20.38;;;9.48;;
72369;SDS011;60343;-32.030;115.880;2022-07-12T13:26:46;21.77;;;9.77;;
72369;SDS011;60343;-32.030;115.880;2022-07-12T13:29:14;23.30;;;10.60;;
72369;SDS011;60343;-32.030;115.880;2022-07-12T13:31:41;22.85;;;10.27;;
72369;SDS011;60343;-32.030;115.880;2022-07-12T13:34:15;21.70;;;10.52;;
72369;SDS011;60343;-32.030;115.880;2022-07-12T13:36:42;24.23;;;10.80;;
72369;SDS011;60343;-32.030;115.880;2022-07-12T13:39:10;26.38;;;11.63;;
72369;SDS011;60343;-32.030;115.880;2022-07-12T13:41:38;21.42;;;10.55;;
72369;SDS011;60343;-32.030;115.880;2022-07-12T13:44:05;22.13;;;10.35;;
72369;SDS011;60343;-32.030;115.880;2022-07-12T13:46:33;24.42;;;11.38;;
72369;SDS011;60343;-32.030;115.880;2022-07-12T13:49:01;24.58;;;11.77;;
72369;SDS011;60343;-32.030;115.880;2022-07-12T13:51:34;25.10;;;11.75;;
72369;SDS011;60343;-32.030;115.880;2022-07-12T13:54:02;20.27;;;10.02;;
72369;SDS011;60343;-32.030;115.880;2022-07-12T13:56:29;31.70;;;13.27;;
72369;SDS011;60343;-32.030;115.880;2022-07-12T13:58:57;29.20;;;13.82;;
72369;SDS011;60343;-32.030;115.880;2022-07-12T14:01:25;24.17;;;11.32;;
72369;SDS011;60343;-32.030;115.880;2022-07-12T14:03:52;21.45;;;10.48;;
72369;SDS011;60343;-32.030;115.880;2022-07-12T14:06:20;20.75;;;10.20;;
72369;SDS011;60343;-32.030;115.880;2022-07-12T14:08:53;19.70;;;9.63;;
72369;SDS011;60343;-32.030;115.880;2022-07-12T14:11:21;28.20;;;12.07;;
72369;SDS011;60343;-32.030;115.880;2022-07-12T14:13:49;26.60;;;11.85;;
72369;SDS011;60343;-32.030;115.880;2022-07-12T14:16:17;23.67;;;9.75;;
72369;SDS011;60343;-32.030;115.880;2022-07-12T14:18:44;20.27;;;8.63;;
72369;SDS011;60343;-32.030;115.880;2022-07-12T14:21:12;19.65;;;9.63;;
72369;SDS011;60343;-32.030;115.880;2022-07-12T14:23:40;21.38;;;9.50;;
72369;SDS011;60343;-32.030;115.880;2022-07-12T14:26:13;20.33;;;9.07;;
72369;SDS011;60343;-32.030;115.880;2022-07-12T14:28:41;21.77;;;10.45;;
72369;SDS011;60343;-32.030;115.880;2022-07-12T14:31:09;18.70;;;9.07;;
72369;SDS011;60343;-32.030;115.880;2022-07-12T14:33:37;23.15;;;10.80;;